createdAt,value
2018-09-14T00:00:36.178Z,3.42
2018-09-14T00:03:06.519Z,3.40
2018-09-14T00:05:35.403Z,3.37
2018-09-14T00:08:04.991Z,3.20
2018-09-14T00:10:33.991Z,2.60
2018-09-14T00:13:02.899Z,3.15
2018-09-14T00:15:31.973Z,3.42
2018-09-14T00:18:00.951Z,2.25
2018-09-14T00:20:30.047Z,3.20
2018-09-14T00:22:58.955Z,2.72
2018-09-14T00:25:27.927Z,3.45
2018-09-14T00:27:56.821Z,3.60
2018-09-14T00:30:26.767Z,2.90
2018-09-14T00:32:55.651Z,2.87
2018-09-14T00:35:24.619Z,3.35
2018-09-14T00:37:53.531Z,3.10
2018-09-14T00:40:22.522Z,3.02
2018-09-14T00:42:51.451Z,3.67
2018-09-14T00:45:20.359Z,3.25
2018-09-14T00:47:49.300Z,4.05
2018-09-14T00:50:18.300Z,3.83
2018-09-14T00:52:47.227Z,4.50
2018-09-14T00:55:16.178Z,4.03
2018-09-14T00:57:45.105Z,3.10
2018-09-14T01:00:14.031Z,4.42
2018-09-14T01:02:42.986Z,3.75
2018-09-14T01:05:11.876Z,4.12
2018-09-14T01:07:40.788Z,2.92
2018-09-14T01:10:09.754Z,3.10
2018-09-14T01:12:38.655Z,3.75
2018-09-14T01:15:07.658Z,4.60
2018-09-14T01:17:36.660Z,3.95
2018-09-14T01:20:05.814Z,3.65
2018-09-14T01:22:34.737Z,3.58
2018-09-14T01:25:03.691Z,4.70
2018-09-14T01:27:32.598Z,3.65
2018-09-14T01:30:01.552Z,4.72
2018-09-14T01:32:30.527Z,5.28
2018-09-14T01:34:59.477Z,4.55
2018-09-14T01:37:28.379Z,6.00
2018-09-14T01:39:57.289Z,4.90
2018-09-14T01:42:26.240Z,5.35
2018-09-14T01:44:55.147Z,5.72
2018-09-14T01:47:24.086Z,5.00
2018-09-14T01:49:53.030Z,5.03
2018-09-14T01:52:22.012Z,4.50
2018-09-14T01:54:50.895Z,4.62
2018-09-14T01:57:19.860Z,5.58
2018-09-14T01:59:48.775Z,7.28
2018-09-14T02:02:17.702Z,5.42
2018-09-14T02:04:46.715Z,4.92
2018-09-14T02:07:15.718Z,5.10
2018-09-14T02:09:44.647Z,5.78
2018-09-14T02:12:13.565Z,5.42
2018-09-14T02:14:42.489Z,6.12
2018-09-14T02:17:11.415Z,5.62
2018-09-14T02:19:40.391Z,6.35
2018-09-14T02:22:09.309Z,6.83
2018-09-14T02:24:38.230Z,8.13
2018-09-14T02:27:07.196Z,5.80
2018-09-14T02:29:36.190Z,5.83
2018-09-14T02:32:05.372Z,4.12
2018-09-14T02:34:34.408Z,3.83
2018-09-14T02:37:03.884Z,4.95
2018-09-14T02:39:33.114Z,4.97
2018-09-14T02:42:02.145Z,5.65
2018-09-14T02:44:31.051Z,6.72
2018-09-14T02:46:59.974Z,7.28
2018-09-14T02:49:28.939Z,7.40
2018-09-14T02:51:57.846Z,8.08
2018-09-14T02:54:26.870Z,9.15
2018-09-14T02:56:55.829Z,6.85
2018-09-14T02:59:24.767Z,8.00
2018-09-14T03:01:54.110Z,9.95
2018-09-14T03:04:23.152Z,10.72
2018-09-14T03:06:52.064Z,10.45
2018-09-14T03:09:20.952Z,11.00
2018-09-14T03:11:50.907Z,11.75
2018-09-14T03:14:19.799Z,11.78
2018-09-14T03:16:48.774Z,11.40
2018-09-14T03:19:17.685Z,11.18
2018-09-14T03:21:46.571Z,12.60
2018-09-14T03:24:15.545Z,11.18
2018-09-14T03:26:44.448Z,12.40
2018-09-14T03:29:13.360Z,14.38
2018-09-14T03:31:42.281Z,12.15
2018-09-14T03:34:11.212Z,13.78
2018-09-14T03:36:40.163Z,11.50
2018-09-14T03:39:10.159Z,12.37
2018-09-14T03:41:39.209Z,13.10
2018-09-14T03:44:08.172Z,12.13
2018-09-14T03:46:37.100Z,11.55
2018-09-14T03:49:06.079Z,11.28
2018-09-14T03:51:34.975Z,12.00
2018-09-14T03:54:03.931Z,13.40
2018-09-14T03:56:32.865Z,12.55
2018-09-14T03:59:01.748Z,11.50
2018-09-14T04:01:30.722Z,12.50
2018-09-14T04:03:59.620Z,12.82
2018-09-14T04:06:28.592Z,12.82
2018-09-14T04:08:57.477Z,13.48
2018-09-14T04:11:26.465Z,13.20
2018-09-14T04:13:55.368Z,13.98
2018-09-14T04:16:24.290Z,14.13
2018-09-14T04:18:57.850Z,13.10
2018-09-14T04:21:26.804Z,14.70
2018-09-14T04:23:55.765Z,13.98
2018-09-14T04:26:24.755Z,12.82
2018-09-14T04:28:53.888Z,10.00
2018-09-14T04:31:22.813Z,10.10
2018-09-14T04:33:51.748Z,10.30
2018-09-14T04:36:20.682Z,11.88
2018-09-14T04:38:49.699Z,11.68
2018-09-14T04:41:18.642Z,11.33
2018-09-14T04:43:47.642Z,13.22
2018-09-14T04:46:16.555Z,11.70
2018-09-14T04:48:45.478Z,11.30
2018-09-14T04:51:14.614Z,13.20
2018-09-14T04:53:43.627Z,12.28
2018-09-14T04:56:12.512Z,10.40
2018-09-14T04:58:41.394Z,11.40
2018-09-14T05:01:10.302Z,12.10
2018-09-14T05:03:39.212Z,10.72
2018-09-14T05:06:08.145Z,13.08
2018-09-14T05:08:37.090Z,11.28
2018-09-14T05:11:10.993Z,11.40
2018-09-14T05:13:39.886Z,11.97
2018-09-14T05:16:08.824Z,12.43
2018-09-14T05:18:37.833Z,11.95
2018-09-14T05:21:06.911Z,10.82
2018-09-14T05:23:35.814Z,11.93
2018-09-14T05:26:04.783Z,10.75
2018-09-14T05:28:33.747Z,11.73
2018-09-14T05:31:02.699Z,12.73
2018-09-14T05:33:31.695Z,11.95
2018-09-14T05:36:00.623Z,13.28
2018-09-14T05:38:29.612Z,13.13
2018-09-14T05:40:58.510Z,14.98
2018-09-14T05:43:27.444Z,13.88
2018-09-14T05:45:56.415Z,14.05
2018-09-14T05:48:25.395Z,12.93
2018-09-14T05:50:54.333Z,13.58
2018-09-14T05:53:23.360Z,14.18
2018-09-14T05:55:52.316Z,13.55
2018-09-14T05:58:21.362Z,12.65
2018-09-14T06:00:50.363Z,13.90
2018-09-14T06:03:19.357Z,12.88
2018-09-14T06:05:48.256Z,13.10
2018-09-14T06:08:17.157Z,13.58
2018-09-14T06:10:46.149Z,12.65
2018-09-14T06:13:15.083Z,15.25
2018-09-14T06:15:44.030Z,12.53
2018-09-14T06:18:12.986Z,14.55
2018-09-14T06:20:41.998Z,12.65
2018-09-14T06:23:10.935Z,11.60
2018-09-14T06:25:39.924Z,15.85
2018-09-14T06:28:08.842Z,13.13
2018-09-14T06:30:37.868Z,13.53
2018-09-14T06:33:06.823Z,11.88
2018-09-14T06:35:35.770Z,12.60
2018-09-14T06:38:04.712Z,13.38
2018-09-14T06:40:33.706Z,12.70
2018-09-14T06:43:02.730Z,13.08
2018-09-14T06:45:31.648Z,12.73
2018-09-14T06:48:00.660Z,12.45
2018-09-14T06:50:29.644Z,10.38
2018-09-14T06:52:58.579Z,12.50
2018-09-14T06:55:27.571Z,9.73
2018-09-14T06:57:56.555Z,12.18
2018-09-14T07:00:25.699Z,12.25
2018-09-14T07:02:54.747Z,9.30
2018-09-14T07:05:23.787Z,10.75
2018-09-14T07:07:53.095Z,10.53
2018-09-14T07:10:22.312Z,10.80
2018-09-14T07:12:51.317Z,9.03
2018-09-14T07:15:20.548Z,10.20
2018-09-14T07:17:49.602Z,9.90
2018-09-14T07:20:18.744Z,10.20
2018-09-14T07:22:47.657Z,9.85
2018-09-14T07:25:16.624Z,8.93
2018-09-14T07:27:45.586Z,8.53
2018-09-14T07:30:14.605Z,10.63
2018-09-14T07:32:43.612Z,11.53
2018-09-14T07:35:12.611Z,10.58
2018-09-14T07:37:41.680Z,10.88
2018-09-14T07:40:10.715Z,11.57
2018-09-14T07:42:39.749Z,10.00
2018-09-14T07:45:09.171Z,9.63
2018-09-14T07:47:38.211Z,10.00
2018-09-14T07:50:07.300Z,9.90
2018-09-14T07:52:36.363Z,11.12
2018-09-14T07:55:05.412Z,13.90
2018-09-14T07:57:34.498Z,16.80
2018-09-14T08:00:03.625Z,17.05
2018-09-14T08:02:32.623Z,16.87
2018-09-14T08:05:01.651Z,14.10
2018-09-14T08:07:30.663Z,14.30
2018-09-14T08:09:59.641Z,14.78
2018-09-14T08:12:28.664Z,11.53
2018-09-14T08:14:57.632Z,12.40
2018-09-14T08:17:26.654Z,17.20
2018-09-14T08:19:55.750Z,21.27
2018-09-14T08:22:24.764Z,19.67
2018-09-14T08:24:53.688Z,24.15
2018-09-14T08:27:22.703Z,23.30
2018-09-14T08:29:51.665Z,16.23
2018-09-14T08:32:20.699Z,13.22
2018-09-14T08:34:49.636Z,14.33
2018-09-14T08:37:18.616Z,18.00
2018-09-14T08:39:47.616Z,18.27
2018-09-14T08:42:16.526Z,16.90
2018-09-14T08:44:45.446Z,11.33
2018-09-14T08:47:14.364Z,12.18
2018-09-14T08:49:43.308Z,14.90
2018-09-14T08:52:12.256Z,15.32
2018-09-14T08:54:41.150Z,14.65
2018-09-14T08:57:10.079Z,12.18
2018-09-14T08:59:39.069Z,11.20
2018-09-14T09:02:08.027Z,12.25
2018-09-14T09:04:36.969Z,15.28
2018-09-14T09:07:05.997Z,13.78
2018-09-14T09:09:36.103Z,15.20
2018-09-14T09:12:05.064Z,11.95
2018-09-14T09:14:33.952Z,14.95
2018-09-14T09:17:02.879Z,15.55
2018-09-14T09:19:31.823Z,12.58
2018-09-14T09:22:00.894Z,13.83
2018-09-14T09:24:29.792Z,14.25
2018-09-14T09:26:58.699Z,15.32
2018-09-14T09:29:27.686Z,15.00
2018-09-14T09:31:56.618Z,12.37
2018-09-14T09:34:25.583Z,13.38
2018-09-14T09:36:54.624Z,13.32
2018-09-14T09:39:23.551Z,14.55
2018-09-14T09:41:52.464Z,16.62
2018-09-14T09:44:21.450Z,14.98
2018-09-14T09:46:50.360Z,9.90
2018-09-14T09:49:19.300Z,8.83
2018-09-14T09:51:48.180Z,9.30
2018-09-14T09:54:17.121Z,9.58
2018-09-14T09:56:46.254Z,7.78
2018-09-14T09:59:15.103Z,7.90
2018-09-14T10:01:49.306Z,8.85
2018-09-14T10:04:23.419Z,8.88
2018-09-14T10:06:52.414Z,9.20
2018-09-14T10:09:21.373Z,8.45
2018-09-14T10:11:51.723Z,7.33
2018-09-14T10:14:20.708Z,7.90
2018-09-14T10:16:49.634Z,8.30
2018-09-14T10:19:18.549Z,7.80
2018-09-14T10:21:47.591Z,7.20
2018-09-14T10:24:16.491Z,7.78
2018-09-14T10:26:45.557Z,8.23
2018-09-14T10:29:14.419Z,8.05
2018-09-14T10:31:43.314Z,6.40
2018-09-14T10:34:12.247Z,8.15
2018-09-14T10:36:41.128Z,13.05
2018-09-14T10:39:11.128Z,12.30
2018-09-14T10:41:40.048Z,12.25
2018-09-14T10:44:09.017Z,8.13
2018-09-14T10:46:37.919Z,8.30
2018-09-14T10:49:06.859Z,7.62
2018-09-14T10:51:35.865Z,7.70
2018-09-14T10:54:04.833Z,7.25
2018-09-14T10:56:33.732Z,6.97
2018-09-14T10:59:02.680Z,7.60
2018-09-14T11:01:31.608Z,8.03
2018-09-14T11:04:00.551Z,7.20
2018-09-14T11:06:29.464Z,7.33
2018-09-14T11:08:58.354Z,7.33
2018-09-14T11:11:27.280Z,7.17
2018-09-14T11:13:56.184Z,7.92
2018-09-14T11:16:25.184Z,9.35
2018-09-14T11:18:54.122Z,7.30
2018-09-14T11:21:23.306Z,8.73
2018-09-14T11:23:52.230Z,7.05
2018-09-14T11:26:21.188Z,7.40
2018-09-14T11:28:50.092Z,7.90
2018-09-14T11:31:22.004Z,7.55
2018-09-14T11:33:50.904Z,6.58
2018-09-14T11:36:19.885Z,7.58
2018-09-14T11:38:48.831Z,8.05
2018-09-14T11:41:17.770Z,9.33
2018-09-14T11:43:46.670Z,7.95
2018-09-14T11:46:15.563Z,7.85
2018-09-14T11:48:44.503Z,7.30
2018-09-14T11:51:13.470Z,7.12
2018-09-14T11:53:42.684Z,8.65
2018-09-14T11:56:11.798Z,7.83
2018-09-14T11:58:40.854Z,8.85
2018-09-14T12:01:09.767Z,9.48
2018-09-14T12:03:38.714Z,7.80
2018-09-14T12:06:07.635Z,9.20
2018-09-14T12:08:36.587Z,8.58
2018-09-14T12:11:05.566Z,8.38
2018-09-14T12:13:34.463Z,8.98
2018-09-14T12:16:03.384Z,8.08
2018-09-14T12:18:32.297Z,8.20
2018-09-14T12:21:01.288Z,8.30
2018-09-14T12:23:30.270Z,7.92
2018-09-14T12:25:59.871Z,8.93
2018-09-14T12:28:28.810Z,8.13
2018-09-14T12:30:57.949Z,8.18
2018-09-14T12:33:26.903Z,9.93
2018-09-14T12:35:56.253Z,9.78
2018-09-14T12:38:26.731Z,8.98
2018-09-14T12:40:55.850Z,8.35
2018-09-14T12:43:24.758Z,8.63
2018-09-14T12:45:53.665Z,9.13
2018-09-14T12:48:22.748Z,9.25
2018-09-14T12:50:51.627Z,7.33
2018-09-14T12:53:20.603Z,6.92
2018-09-14T12:55:49.510Z,6.55
2018-09-14T12:58:18.466Z,7.40
2018-09-14T13:00:47.726Z,9.10
2018-09-14T13:03:17.280Z,7.75
2018-09-14T13:05:46.379Z,7.53
2018-09-14T13:08:15.564Z,7.45
2018-09-14T13:10:44.612Z,8.65
2018-09-14T13:13:13.939Z,9.15
2018-09-14T13:15:43.094Z,9.10
2018-09-14T13:18:12.300Z,8.20
2018-09-14T13:20:42.297Z,7.62
2018-09-14T13:23:11.279Z,8.55
2018-09-14T13:25:40.338Z,8.65
2018-09-14T13:28:09.304Z,9.13
2018-09-14T13:30:39.191Z,8.48
2018-09-14T13:33:08.359Z,6.65
2018-09-14T13:35:37.467Z,6.35
2018-09-14T13:38:06.647Z,6.85
2018-09-14T13:40:35.754Z,7.20
2018-09-14T13:43:04.822Z,8.43
2018-09-14T13:45:33.804Z,7.10
2018-09-14T13:48:02.807Z,7.45
2018-09-14T13:50:32.830Z,7.65
2018-09-14T13:53:01.806Z,7.05
2018-09-14T13:55:30.701Z,7.80
2018-09-14T13:57:59.689Z,7.83
2018-09-14T14:00:28.575Z,7.95
2018-09-14T14:02:57.582Z,8.33
2018-09-14T14:05:26.500Z,8.10
2018-09-14T14:07:55.494Z,8.00
2018-09-14T14:10:24.500Z,7.60
2018-09-14T14:12:53.415Z,8.33
2018-09-14T14:15:22.329Z,6.97
2018-09-14T14:17:51.311Z,7.75
2018-09-14T14:20:20.277Z,7.22
2018-09-14T14:22:49.242Z,6.20
2018-09-14T14:25:18.244Z,6.55
2018-09-14T14:27:47.197Z,5.67
2018-09-14T14:30:16.896Z,6.08
2018-09-14T14:32:45.928Z,7.15
2018-09-14T14:35:14.995Z,7.25
2018-09-14T14:37:43.929Z,5.92
2018-09-14T14:40:12.883Z,6.37
2018-09-14T14:42:41.786Z,7.15
2018-09-14T14:45:10.695Z,6.10
2018-09-14T14:47:40.108Z,6.72
2018-09-14T14:50:09.072Z,5.95
2018-09-14T14:52:38.027Z,6.78
2018-09-14T14:55:07.010Z,7.50
2018-09-14T14:57:35.889Z,8.23
2018-09-14T15:00:04.908Z,7.95
2018-09-14T15:02:33.872Z,7.37
2018-09-14T15:05:02.804Z,7.17
2018-09-14T15:07:31.755Z,6.50
2018-09-14T15:10:00.715Z,7.20
2018-09-14T15:12:29.699Z,6.75
2018-09-14T15:14:58.688Z,7.33
2018-09-14T15:17:27.697Z,8.53
2018-09-14T15:19:56.607Z,6.30
2018-09-14T15:22:25.553Z,6.83
2018-09-14T15:24:54.489Z,7.53
2018-09-14T15:27:23.440Z,8.15
2018-09-14T15:29:52.337Z,6.85
2018-09-14T15:32:21.268Z,6.80
2018-09-14T15:34:50.212Z,7.95
2018-09-14T15:37:19.366Z,7.92
2018-09-14T15:39:48.576Z,10.35
2018-09-14T15:42:17.589Z,9.15
2018-09-14T15:44:46.609Z,10.58
2018-09-14T15:47:15.642Z,9.48
2018-09-14T15:49:45.116Z,8.58
2018-09-14T15:52:14.029Z,8.20
2018-09-14T15:54:43.070Z,9.63
2018-09-14T15:57:12.060Z,9.40
2018-09-14T15:59:41.064Z,9.40
2018-09-14T16:02:10.374Z,9.43
2018-09-14T16:04:39.314Z,10.43
2018-09-14T16:07:08.263Z,9.63
2018-09-14T16:09:37.212Z,9.90
2018-09-14T16:12:06.115Z,8.58
2018-09-14T16:14:35.040Z,10.18
2018-09-14T16:17:03.972Z,9.75
2018-09-14T16:19:32.901Z,9.13
2018-09-14T16:22:01.905Z,9.78
2018-09-14T16:24:30.784Z,7.92
2018-09-14T16:26:59.720Z,7.80
2018-09-14T16:29:28.669Z,8.55
2018-09-14T16:31:57.601Z,9.03
2018-09-14T16:34:26.494Z,11.20
2018-09-14T16:36:55.563Z,9.53
2018-09-14T16:39:24.547Z,10.13
2018-09-14T16:41:53.443Z,10.98
2018-09-14T16:44:22.470Z,10.88
2018-09-14T16:46:51.353Z,10.00
2018-09-14T16:49:20.403Z,11.15
2018-09-14T16:51:49.306Z,10.58
2018-09-14T16:54:18.237Z,9.93
2018-09-14T16:56:47.124Z,10.68
2018-09-14T16:59:16.085Z,9.68
2018-09-14T17:01:44.998Z,10.05
2018-09-14T17:04:13.948Z,10.35
2018-09-14T17:06:42.873Z,10.60
2018-09-14T17:09:11.899Z,10.28
2018-09-14T17:11:40.880Z,11.57
2018-09-14T17:14:09.867Z,10.48
2018-09-14T17:16:39.156Z,10.63
2018-09-14T17:19:08.526Z,10.38
2018-09-14T17:21:37.537Z,8.75
2018-09-14T17:24:06.458Z,10.50
2018-09-14T17:26:35.534Z,11.90
2018-09-14T17:29:04.425Z,11.22
2018-09-14T17:31:33.335Z,13.55
2018-09-14T17:34:02.232Z,9.90
2018-09-14T17:36:31.163Z,11.10
2018-09-14T17:39:00.044Z,12.73
2018-09-14T17:41:29.049Z,11.65
2018-09-14T17:44:01.880Z,11.53
2018-09-14T17:46:27.264Z,11.15
2018-09-14T17:48:56.211Z,11.95
2018-09-14T17:51:25.152Z,12.73
2018-09-14T17:53:54.084Z,13.18
2018-09-14T17:56:22.982Z,12.88
2018-09-14T17:58:51.884Z,13.55
2018-09-14T18:01:20.890Z,12.10
2018-09-14T18:03:49.829Z,11.60
2018-09-14T18:06:18.793Z,12.95
2018-09-14T18:08:47.750Z,12.90
2018-09-14T18:11:25.205Z,11.70
2018-09-14T18:14:02.007Z,13.10
2018-09-14T18:16:31.098Z,11.78
2018-09-14T18:19:00.075Z,12.23
2018-09-14T18:21:29.021Z,13.90
2018-09-14T18:23:57.990Z,12.45
2018-09-14T18:26:27.034Z,13.83
2018-09-14T18:28:56.063Z,12.78
2018-09-14T18:31:25.298Z,13.60
2018-09-14T18:33:54.379Z,11.60
2018-09-14T18:36:23.403Z,10.88
2018-09-14T18:38:52.518Z,11.95
2018-09-14T18:41:21.689Z,13.40
2018-09-14T18:43:51.293Z,12.37
2018-09-14T18:46:20.897Z,10.45
2018-09-14T18:48:50.095Z,12.37
2018-09-14T18:51:19.917Z,11.70
2018-09-14T18:53:48.891Z,10.70
2018-09-14T18:56:17.880Z,11.25
2018-09-14T18:58:46.927Z,9.53
2018-09-14T19:01:15.907Z,10.10
2018-09-14T19:03:44.976Z,9.78
2018-09-14T19:06:14.144Z,11.35
2018-09-14T19:08:43.144Z,11.85
2018-09-14T19:11:12.200Z,11.75
2018-09-14T19:13:41.589Z,10.23
2018-09-14T19:16:10.585Z,9.43
2018-09-14T19:18:39.546Z,8.90
2018-09-14T19:21:08.577Z,11.50
2018-09-14T19:23:37.619Z,8.80
2018-09-14T19:26:06.637Z,9.83
2018-09-14T19:28:35.583Z,9.30
2018-09-14T19:31:05.315Z,10.63
2018-09-14T19:33:34.503Z,11.08
2018-09-14T19:36:03.787Z,10.55
2018-09-14T19:38:33.276Z,8.45
2018-09-14T19:41:02.406Z,8.75
2018-09-14T19:43:31.428Z,8.68
2018-09-14T19:46:01.198Z,8.45
2018-09-14T19:48:30.217Z,8.33
2018-09-14T19:50:59.218Z,7.30
2018-09-14T19:53:28.183Z,9.33
2018-09-14T19:55:57.136Z,9.20
2018-09-14T19:58:26.043Z,9.50
2018-09-14T20:00:55.127Z,7.62
2018-09-14T20:03:24.105Z,8.40
2018-09-14T20:05:53.127Z,9.10
2018-09-14T20:08:22.108Z,8.80
2018-09-14T20:10:51.032Z,7.28
2018-09-14T20:13:20.049Z,9.05
2018-09-14T20:15:49.017Z,8.35
2018-09-14T20:18:18.064Z,7.50
2018-09-14T20:20:47.597Z,9.05
2018-09-14T20:23:16.559Z,8.28
2018-09-14T20:25:45.468Z,9.00
2018-09-14T20:28:14.556Z,8.30
2018-09-14T20:30:43.512Z,9.80
2018-09-14T20:33:12.545Z,7.92
2018-09-14T20:35:41.553Z,7.40
2018-09-14T20:38:11.553Z,8.35
2018-09-14T20:40:40.550Z,7.20
2018-09-14T20:43:10.387Z,8.30
2018-09-14T20:45:39.402Z,7.22
2018-09-14T20:48:08.445Z,7.62
2018-09-14T20:50:37.781Z,8.05
2018-09-14T20:53:06.744Z,8.20
2018-09-14T20:55:35.745Z,6.90
2018-09-14T20:58:04.725Z,8.03
2018-09-14T21:00:33.711Z,7.85
2018-09-14T21:03:02.676Z,7.90
2018-09-14T21:05:32.260Z,7.25
2018-09-14T21:08:01.322Z,6.50
2018-09-14T21:10:30.281Z,5.72
2018-09-14T21:12:59.246Z,6.55
2018-09-14T21:15:28.153Z,5.80
2018-09-14T21:17:57.395Z,6.72
2018-09-14T21:20:26.287Z,6.05
2018-09-14T21:22:55.228Z,5.65
2018-09-14T21:25:24.195Z,7.67
2018-09-14T21:27:53.230Z,6.58
2018-09-14T21:30:22.150Z,5.42
2018-09-14T21:32:51.095Z,5.30
2018-09-14T21:35:19.980Z,7.20
2018-09-14T21:37:48.889Z,5.00
2018-09-14T21:40:17.910Z,5.35
2018-09-14T21:42:46.826Z,6.33
2018-09-14T21:45:15.789Z,5.40
2018-09-14T21:47:44.711Z,6.03
2018-09-14T21:50:13.647Z,5.95
2018-09-14T21:52:42.702Z,6.17
2018-09-14T21:55:11.703Z,7.22
2018-09-14T21:57:40.650Z,7.12
2018-09-14T22:00:15.826Z,7.37
2018-09-14T22:02:44.808Z,7.80
2018-09-14T22:05:14.187Z,7.20
2018-09-14T22:07:43.138Z,8.15
2018-09-14T22:10:12.094Z,8.10
2018-09-14T22:12:40.991Z,9.90
2018-09-14T22:15:09.932Z,11.45
2018-09-14T22:17:38.859Z,12.90
2018-09-14T22:20:08.193Z,13.15
2018-09-14T22:22:37.112Z,12.98
2018-09-14T22:25:06.079Z,12.03
2018-09-14T22:27:35.100Z,13.95
2018-09-14T22:30:04.088Z,12.13
2018-09-14T22:32:33.040Z,12.23
2018-09-14T22:35:02.008Z,10.55
2018-09-14T22:37:30.968Z,11.73
2018-09-14T22:39:59.846Z,10.72
2018-09-14T22:42:28.802Z,10.40
2018-09-14T22:44:57.723Z,12.93
2018-09-14T22:47:26.612Z,13.75
2018-09-14T22:49:55.570Z,11.80
2018-09-14T22:52:24.479Z,10.53
2018-09-14T22:54:53.420Z,12.78
2018-09-14T22:57:22.392Z,11.48
2018-09-14T22:59:51.338Z,10.50
2018-09-14T23:02:20.287Z,10.55
2018-09-14T23:04:49.234Z,10.08
2018-09-14T23:07:18.121Z,10.90
2018-09-14T23:09:47.068Z,11.93
2018-09-14T23:12:15.949Z,12.40
2018-09-14T23:14:44.897Z,9.78
2018-09-14T23:17:13.793Z,11.43
2018-09-14T23:19:42.679Z,14.78
2018-09-14T23:22:11.634Z,10.78
2018-09-14T23:24:40.528Z,10.95
2018-09-14T23:27:09.457Z,10.25
2018-09-14T23:29:38.396Z,11.45
2018-09-14T23:32:07.308Z,11.38
2018-09-14T23:34:36.192Z,10.32
2018-09-14T23:37:05.093Z,12.07
2018-09-14T23:39:34.069Z,12.90
2018-09-14T23:42:02.988Z,11.57
2018-09-14T23:44:31.896Z,12.90
2018-09-14T23:47:00.832Z,10.72
2018-09-14T23:49:29.734Z,11.70
2018-09-14T23:51:58.670Z,13.03
2018-09-14T23:54:27.621Z,13.43
2018-09-14T23:56:56.534Z,13.58
2018-09-14T23:59:25.508Z,12.75
